Romney, WV

6:31 AM EST on December 25, 2014 (GMT -0500)
Romney | Change Station
CLOSE
Current Station
Personal Weather Station
Location: Romney, WV
Elevation: 846 ft
Nearby Weather Stations

Elev 846 ft 39.34 °N, 78.75 °W | Updated 11 seconds ago

Overcast
Overcast
43.0 °F
Feels Like 40 °F
N
5.0
Wind Variable Wind from WSW
Gusts 14.0 mph

Today
High -- | Low -- °F
--% Chance of Precip.
Yesterday
High -- | Low -- °F
Precip. -- in
7:33 AM 4:57 PM
Waxing Crescent, 15% visible
Pressure 29.82 in
Visibility 10.0 miles
Clouds Scattered Clouds 4400 ft
Scattered Clouds 4900 ft
Mostly Cloudy 7000 ft
Windchill 40 °F
Dew Point 32 °F
Humidity 64%
Rainfall 0.02 in
Snow Depth Not available.
UV 0 out of 12
Pollen .10 out of 12
Air Quality Not available.
Flu Activity Not available.
METAR KCBE 251109Z AUTO 17003G16KT 10SM SCT044 SCT049 BKN070 07/00 A2982 RMK AO1

More Conditions Fewer Conditions

Pressure 29.82 in
Visibility 10.0 miles
Clouds Scattered Clouds 4400 ft
Scattered Clouds 4900 ft
Mostly Cloudy 7000 ft
Windchill 40 °F
Dew Point 32 °F
Humidity 64%
Rainfall 0.02 in
Snow Depth Not available.
UV 0 out of 12
Pollen .10 out of 12
Air Quality Not available.
Flu Activity Not available.
METAR KCBE 251109Z AUTO 17003G16KT 10SM SCT044 SCT049 BKN070 07/00 A2982 RMK AO1

More Conditions Fewer Conditions

10-Day Weather Forecast

Almanac

Astronomy

Dec. 25, 2014 Rise Set
Actual Time
Civil Twilight
Nautical Twilight
Astronomical Twilight
Moon
Length of Visible Light
Length of Day
Tomorrow will be .
, % of the Moon is Illuminated

Today's Extremes

State Highs State Lows

Community

WunderPhotos

Upload Photos

1,780,259 photos uploaded!

WunderBlogs® & News

Nearby

Air Quality

  Air Quality AQ Index Pollutant
Not available.

Snow Depth

Station Depth Elevation

Earthquake Activity

City Distance Mag. Time & Date
Minimum magnitude displayed is 2.5.

Coastal Water Temperatures

Place Temperature

Nearby Weather Stations